Time;durP1;ratioP1;P1;durP2;ratioP2;P2;SDS_P1;SDS_P2;PMS_P1;PMS_P2;Temp;Humidity;BMP_temperature;BMP_pressure;BME280_temperature;BME280_humidity;BME280_pressure;Samples;Min_cycle;Max_cycle;Signal;HPM_P1;HPM_P2
2022/04/14 00:00:14;;;;;;;;;;;;;;;8.68;55.43;99605.25;8426712;28;20365;-74
2022/04/14 00:04:35;;;;;;;;;;;;;;;8.70;55.21;99597.69;8395507;28;19991;-74
2022/04/14 00:08:35;;;;;;;;;;;;;;;8.66;55.68;99596.66;8396045;28;19986;-74
2022/04/14 00:12:36;;;;;;;;;;;;;;;8.66;55.73;99601.25;8394495;28;20030;-74
2022/04/14 00:16:37;;;;;;;;;;;;;;;8.67;55.30;99597.47;8394743;28;19971;-74
2022/04/14 00:20:38;;;;;;;;;;;;;;;8.62;55.39;99595.59;8353337;28;20409;-74
2022/04/14 00:24:39;;;;;;;;;;;;;;;8.63;55.24;99602.59;8414775;28;20075;-74
2022/04/14 00:28:39;;;;;;;;;;;;;;;8.60;55.27;99592.41;8387265;28;19967;-74
2022/04/14 00:32:40;;;;;;;;;;;;;;;8.56;55.18;99596.75;8394316;28;20044;-74
2022/04/14 00:36:42;;;;;;;;;;;;;;;8.51;55.50;99604.88;8428235;28;20388;-74
2022/04/14 00:40:45;;;;;;;;;;;;;;;8.47;55.37;99603.81;8411690;28;20006;-74
2022/04/14 00:44:45;;;;;;;;;;;;;;;8.47;55.16;99598.44;8426747;28;19987;-74
2022/04/14 00:48:47;;;;;;;;;;;;;;;8.46;55.39;99596.81;8425484;28;19971;-74
2022/04/14 00:52:48;;;;;;;;;;;;;;;8.46;55.15;99597.63;8409993;28;19975;-74
2022/04/14 00:56:49;;;;;;;;;;;;;;;8.47;54.92;99598.44;8423478;28;20052;-74
2022/04/14 01:00:50;;;;;;;;;;;;;;;8.43;54.95;99592.81;8425264;28;19967;-74
2022/04/14 01:04:50;;;;;;;;;;;;;;;8.43;55.00;99597.41;8427161;28;20043;-74
2022/04/14 01:13:10;;;;;;;;;;;;;;;8.42;54.30;99595.78;8393528;28;19971;-74
2022/04/14 01:17:11;;;;;;;;;;;;;;;8.41;54.22;99594.19;8394752;28;19971;-74
2022/04/14 01:21:12;;;;;;;;;;;;;;;8.40;54.16;99588.03;8420317;28;20006;-74
2022/04/14 01:25:13;;;;;;;;;;;;;;;8.39;54.00;99588.28;8427561;28;19994;-74
2022/04/14 01:29:21;;;;;;;;;;;;;;;8.36;54.12;99591.53;8424849;28;19971;-74
2022/04/14 01:33:22;;;;;;;;;;;;;;;8.38;53.74;99594.75;8417993;28;20067;-74
2022/04/14 01:37:22;;;;;;;;;;;;;;;8.30;53.83;99587.31;8393311;28;20012;-74
2022/04/14 01:41:23;;;;;;;;;;;;;;;8.29;53.58;99591.03;8392798;28;19974;-74
2022/04/14 01:45:24;;;;;;;;;;;;;;;8.26;53.70;99588.91;8407894;28;20419;-74
2022/04/14 01:49:25;;;;;;;;;;;;;;;8.22;53.73;99590.56;8396900;28;20351;-74
2022/04/14 01:53:26;;;;;;;;;;;;;;;8.18;53.79;99592.19;8406398;28;19973;-74
2022/04/14 01:57:27;;;;;;;;;;;;;;;8.14;53.89;99583.91;8371182;28;19990;-74
2022/04/14 02:01:28;;;;;;;;;;;;;;;8.13;53.51;99581.47;8399163;28;20062;-74
2022/04/14 02:05:29;;;;;;;;;;;;;;;8.10;53.75;99571.25;8404653;28;19983;-74
2022/04/14 02:09:29;;;;;;;;;;;;;;;8.07;53.65;99572.66;8398112;28;20044;-73
2022/04/14 02:13:31;;;;;;;;;;;;;;;8.05;53.82;99578.28;8409520;28;20002;-74
2022/04/14 02:17:31;;;;;;;;;;;;;;;8.00;53.93;99578.34;8398188;28;19967;-73
2022/04/14 02:21:32;;;;;;;;;;;;;;;7.95;53.91;99570.31;8408037;28;19967;-73
2022/04/14 02:25:33;;;;;;;;;;;;;;;7.91;54.08;99574.63;8399144;28;19991;-74
2022/04/14 02:29:34;;;;;;;;;;;;;;;7.86;54.18;99577.38;8399490;28;19971;-74
2022/04/14 02:33:34;;;;;;;;;;;;;;;7.84;53.95;99563.38;8398031;28;20086;-73
2022/04/14 02:37:35;;;;;;;;;;;;;;;7.83;54.05;99571.72;8397644;28;19971;-74
2022/04/14 02:41:36;;;;;;;;;;;;;;;7.78;54.09;99564.50;8424903;28;19971;-73
2022/04/14 02:45:37;;;;;;;;;;;;;;;7.74;54.17;99552.69;8397848;28;19986;-73
2022/04/14 02:49:37;;;;;;;;;;;;;;;7.69;54.65;99555.41;8403928;28;19975;-73
2022/04/14 02:53:38;;;;;;;;;;;;;;;7.72;54.18;99554.84;8408683;28;20062;-74
2022/04/14 02:57:39;;;;;;;;;;;;;;;7.70;54.24;99551.66;8413335;28;19974;-74
2022/04/14 03:01:40;;;;;;;;;;;;;;;7.69;53.92;99550.06;8419548;28;20084;-74
2022/04/14 03:05:41;;;;;;;;;;;;;;;7.71;53.65;99547.91;8400080;28;20541;-73
2022/04/14 03:09:41;;;;;;;;;;;;;;;7.69;53.90;99539.28;8397043;28;20036;-73
2022/04/14 03:13:42;;;;;;;;;;;;;;;7.64;53.63;99542.81;8409950;28;20433;-73
2022/04/14 03:17:43;;;;;;;;;;;;;;;7.59;53.80;99539.38;8373111;28;19978;-74
2022/04/14 03:21:46;;;;;;;;;;;;;;;7.55;53.82;99543.69;8405830;28;19971;-74
2022/04/14 03:25:47;;;;;;;;;;;;;;;7.49;53.84;99545.59;8419565;28;19984;-74
2022/04/14 03:29:48;;;;;;;;;;;;;;;7.41;53.89;99542.69;8404498;28;20002;-74
2022/04/14 03:33:49;;;;;;;;;;;;;;;7.37;54.27;99530.88;8396802;28;19980;-74
2022/04/14 03:37:49;;;;;;;;;;;;;;;7.32;54.19;99528.22;8395508;28;19971;-74
2022/04/14 03:41:51;;;;;;;;;;;;;;;7.27;54.33;99530.94;8390543;28;19967;-74
2022/04/14 03:45:51;;;;;;;;;;;;;;;7.18;54.60;99523.47;8381532;28;20024;-74
2022/04/14 03:49:52;;;;;;;;;;;;;;;7.16;54.75;99522.94;8387116;28;20449;-74
2022/04/14 03:53:53;;;;;;;;;;;;;;;7.13;54.81;99530.75;8403185;28;19974;-74
2022/04/14 03:57:54;;;;;;;;;;;;;;;7.07;54.86;99527.28;8386435;28;20415;-73
2022/04/14 04:01:54;;;;;;;;;;;;;;;6.97;55.38;99527.31;8395978;28;20057;-74
2022/04/14 04:05:55;;;;;;;;;;;;;;;6.92;55.26;99519.28;8395576;28;20613;-74
2022/04/14 04:09:56;;;;;;;;;;;;;;;6.92;55.41;99524.66;8392752;28;19987;-75
2022/04/14 04:13:57;;;;;;;;;;;;;;;6.81;56.02;99528.47;8382548;28;19967;-74
2022/04/14 04:17:58;;;;;;;;;;;;;;;6.77;56.14;99530.06;8394373;28;19978;-75
2022/04/14 04:21:58;;;;;;;;;;;;;;;6.81;56.02;99528.47;8383929;28;20002;-74
2022/04/14 04:25:59;;;;;;;;;;;;;;;6.83;55.99;99531.66;8394311;28;19993;-75
2022/04/14 04:30:00;;;;;;;;;;;;;;;6.81;56.25;99528.47;8393955;28;20362;-75
2022/04/14 04:34:01;;;;;;;;;;;;;;;6.85;56.43;99524.13;8397492;28;20024;-75
2022/04/14 04:38:01;;;;;;;;;;;;;;;6.88;56.22;99528.94;8393382;28;20061;-74
2022/04/14 04:42:02;;;;;;;;;;;;;;;6.95;56.50;99521.41;8402887;28;20058;-74
2022/04/14 04:46:03;;;;;;;;;;;;;;;6.94;56.53;99522.47;8401782;28;19987;-74
2022/04/14 04:50:06;;;;;;;;;;;;;;;6.95;56.68;99508.00;8403300;28;20070;-74
2022/04/14 04:54:07;;;;;;;;;;;;;;;7.02;56.37;99518.44;8403872;28;20041;-74
2022/04/14 04:58:08;;;;;;;;;;;;;;;7.08;56.44;99512.78;8403259;28;20277;-74
2022/04/14 05:02:09;;;;;;;;;;;;;;;7.14;56.32;99517.03;8410701;28;19975;-74
2022/04/14 05:06:10;;;;;;;;;;;;;;;7.26;56.24;99523.97;8406718;28;20018;-75
2022/04/14 05:10:11;;;;;;;;;;;;;;;7.35;56.14;99516.94;8415967;28;19986;-74
2022/04/14 05:14:11;;;;;;;;;;;;;;;7.45;56.24;99519.56;8395362;28;19974;-74
2022/04/14 05:18:12;;;;;;;;;;;;;;;7.55;56.15;99527.56;8363665;28;19970;-74
2022/04/14 05:22:13;;;;;;;;;;;;;;;7.64;56.08;99532.06;8396044;28;20442;-74
2022/04/14 05:26:14;;;;;;;;;;;;;;;7.74;56.29;99536.56;8393977;28;20349;-75
2022/04/14 05:30:15;;;;;;;;;;;;;;;7.90;55.59;99540.75;8404275;28;19967;-74
2022/04/14 05:34:17;;;;;;;;;;;;;;;8.00;55.79;99540.69;8396751;28;19968;-75
2022/04/14 05:38:17;;;;;;;;;;;;;;;8.12;56.13;99542.22;8402102;28;19975;-74
2022/04/14 05:42:18;;;;;;;;;;;;;;;8.29;56.34;99531.84;8401264;28;19975;-74
2022/04/14 05:46:19;;;;;;;;;;;;;;;8.41;55.83;99540.34;8398339;28;20085;-74
2022/04/14 05:50:20;;;;;;;;;;;;;;;8.55;55.71;99535.94;8381930;28;20054;-75
2022/04/14 05:54:21;;;;;;;;;;;;;;;8.69;55.36;99531.47;8403498;28;19971;-74
2022/04/14 05:58:22;;;;;;;;;;;;;;;8.86;55.40;99531.81;8399092;28;20369;-74
2022/04/14 06:02:22;;;;;;;;;;;;;;;9.00;55.31;99525.72;8401559;28;19966;-75
2022/04/14 06:06:23;;;;;;;;;;;;;;;9.18;55.26;99527.66;8407159;28;19983;-74
2022/04/14 06:10:24;;;;;;;;;;;;;;;9.39;55.01;99526.31;8408573;28;19995;-74
2022/04/14 06:14:26;;;;;;;;;;;;;;;9.59;55.22;99539.50;8408209;28;20473;-75
2022/04/14 06:18:27;;;;;;;;;;;;;;;9.74;54.87;99531.19;8408755;28;19967;-75
2022/04/14 06:22:28;;;;;;;;;;;;;;;9.86;54.54;99527.25;8404139;28;19971;-75
2022/04/14 06:26:28;;;;;;;;;;;;;;;9.96;54.66;99527.06;8408222;28;20446;-74
2022/04/14 06:30:29;;;;;;;;;;;;;;;10.10;53.90;99527.91;8409186;28;20434;-75
2022/04/14 06:34:30;;;;;;;;;;;;;;;10.28;53.82;99527.13;8403423;28;19967;-75
2022/04/14 06:38:31;;;;;;;;;;;;;;;10.44;53.88;99517.66;8415128;28;19967;-75
2022/04/14 06:42:32;;;;;;;;;;;;;;;10.67;53.72;99520.50;8397767;28;19982;-75
2022/04/14 06:46:33;;;;;;;;;;;;;;;10.86;53.31;99529.28;8396746;28;19999;-75
2022/04/14 06:50:33;;;;;;;;;;;;;;;11.06;52.75;99528.09;8397497;28;19971;-74
2022/04/14 06:54:34;;;;;;;;;;;;;;;11.28;52.71;99528.97;8395745;28;19971;-75
2022/04/14 06:58:36;;;;;;;;;;;;;;;11.44;52.93;99530.25;8397797;28;19975;-75
2022/04/14 07:02:50;;;;;;;;;;;;;;;11.55;52.58;99530.00;8393206;28;19971;-75
2022/04/14 07:06:50;;;;;;;;;;;;;;;11.72;52.90;99532.88;8397340;28;19983;-75
2022/04/14 07:10:52;;;;;;;;;;;;;;;11.91;52.76;99528.13;8397373;28;20006;-75
2022/04/14 07:14:53;;;;;;;;;;;;;;;12.09;52.69;99529.84;8397435;28;19972;-74
2022/04/14 07:18:54;;;;;;;;;;;;;;;12.32;52.85;99527.16;8397071;28;20438;-75
2022/04/14 07:22:55;;;;;;;;;;;;;;;12.37;52.70;99513.47;8396850;28;19975;-74
2022/04/14 07:26:55;;;;;;;;;;;;;;;12.52;52.48;99510.38;8384461;28;20512;-74
2022/04/14 07:30:56;;;;;;;;;;;;;;;12.63;52.32;99507.06;8406219;28;20422;-75
2022/04/14 07:34:57;;;;;;;;;;;;;;;12.73;52.45;99511.41;8396014;28;20062;-74
2022/04/14 07:38:58;;;;;;;;;;;;;;;12.80;52.43;99514.44;8396215;28;20438;-74
2022/04/14 07:43:01;;;;;;;;;;;;;;;12.89;52.61;99515.31;8396119;28;19982;-74
2022/04/14 07:47:02;;;;;;;;;;;;;;;12.93;52.17;99521.69;8395840;28;19995;-74
2022/04/14 07:51:03;;;;;;;;;;;;;;;13.01;52.49;99518.19;8354859;28;20346;-75
2022/04/14 07:55:04;;;;;;;;;;;;;;;12.99;52.49;99509.59;8395048;28;19975;-75
2022/04/14 07:59:05;;;;;;;;;;;;;;;13.02;52.42;99503.53;8395697;28;20060;-75
2022/04/14 08:03:07;;;;;;;;;;;;;;;13.14;51.84;99515.72;8394899;28;19971;-75
2022/04/14 08:07:08;;;;;;;;;;;;;;;13.26;52.02;99518.63;8395373;28;20025;-75
2022/04/14 08:11:09;;;;;;;;;;;;;;;13.36;52.49;99513.69;8394641;28;20513;-75
2022/04/14 08:15:12;;;;;;;;;;;;;;;13.48;52.67;99504.94;8394074;28;19975;-75
2022/04/14 08:19:12;;;;;;;;;;;;;;;13.56;52.97;99525.84;8393736;28;20417;-75
2022/04/14 08:23:16;;;;;;;;;;;;;;;13.58;53.70;99515.47;8390325;28;19978;-75
2022/04/14 08:27:18;;;;;;;;;;;;;;;13.67;54.00;99513.56;8393190;28;19991;-75
2022/04/14 08:31:20;;;;;;;;;;;;;;;13.80;53.73;99506.38;8394241;28;20778;-75
2022/04/14 08:35:21;;;;;;;;;;;;;;;13.95;53.73;99501.25;8392503;28;19975;-75
2022/04/14 08:39:22;;;;;;;;;;;;;;;14.12;53.71;99496.91;8394736;28;20427;-75
2022/04/14 08:43:26;;;;;;;;;;;;;;;14.30;53.05;99487.59;8394572;28;20006;-75
2022/04/14 08:47:28;;;;;;;;;;;;;;;14.44;52.77;99487.44;8394553;28;19997;-74
2022/04/14 08:51:29;;;;;;;;;;;;;;;14.64;51.51;99486.75;8394776;28;19975;-76
2022/04/14 08:55:31;;;;;;;;;;;;;;;14.88;50.48;99491.56;8394839;28;19982;-75
2022/04/14 08:59:31;;;;;;;;;;;;;;;15.05;49.90;99486.06;8394091;28;20028;-74
2022/04/14 09:03:32;;;;;;;;;;;;;;;15.19;49.67;99486.59;8398623;28;19971;-74
2022/04/14 09:07:33;;;;;;;;;;;;;;;15.33;49.46;99487.16;8399706;28;20522;-75
2022/04/14 09:11:34;;;;;;;;;;;;;;;15.53;49.49;99486.41;8400238;28;20434;-75
2022/04/14 09:15:36;;;;;;;;;;;;;;;15.75;48.95;99487.19;8398454;28;19975;-76
2022/04/14 09:19:38;;;;;;;;;;;;;;;16.07;48.42;99489.16;8380961;28;20393;-75
2022/04/14 09:23:38;;;;;;;;;;;;;;;16.32;47.53;99490.00;8367138;28;20029;-75
2022/04/14 09:27:40;;;;;;;;;;;;;;;16.69;46.26;99488.16;8367267;28;20392;-74
2022/04/14 09:31:46;;;;;;;;;;;;;;;16.97;46.09;99480.91;8367305;28;20096;-73
2022/04/14 09:35:47;;;;;;;;;;;;;;;17.18;45.73;99478.81;8367157;28;20362;-74
2022/04/14 09:39:57;;;;;;;;;;;;;;;17.46;44.51;99470.69;8365705;28;19983;-75
2022/04/14 09:43:59;;;;;;;;;;;;;;;17.69;42.50;99460.09;8366732;28;20521;-73
2022/04/14 09:48:07;;;;;;;;;;;;;;;17.93;42.71;99457.25;8366752;28;19998;-74
2022/04/14 09:52:08;;;;;;;;;;;;;;;18.22;40.95;99466.22;8366706;28;19983;-75
2022/04/14 09:56:09;;;;;;;;;;;;;;;18.38;39.22;99458.81;8366419;28;20062;-75
2022/04/14 10:00:10;;;;;;;;;;;;;;;18.67;39.92;99461.16;8366461;28;20053;-75
2022/04/14 10:04:29;;;;;;;;;;;;;;;18.77;37.81;99444.19;8366065;28;19997;-75
2022/04/14 10:08:33;;;;;;;;;;;;;;;18.77;37.31;99457.88;8390300;28;19978;-74
2022/04/14 10:12:33;;;;;;;;;;;;;;;19.03;38.22;99445.59;8397080;28;20374;-74
2022/04/14 10:16:35;;;;;;;;;;;;;;;19.20;37.19;99450.66;8398746;28;19982;-74
2022/04/14 10:20:39;;;;;;;;;;;;;;;19.30;37.28;99455.56;8399608;28;19975;-75
2022/04/14 10:24:40;;;;;;;;;;;;;;;19.21;36.40;99452.25;8398778;28;19991;-75
2022/04/14 10:28:41;;;;;;;;;;;;;;;19.30;36.73;99450.09;8363377;28;19979;-75
2022/04/14 10:32:44;;;;;;;;;;;;;;;19.56;37.30;99442.09;8397227;28;19981;-74
2022/04/14 10:36:45;;;;;;;;;;;;;;;19.74;36.18;99442.44;8360910;28;19976;-74
2022/04/14 10:40:48;;;;;;;;;;;;;;;19.70;36.30;99442.38;8344640;28;20352;-75
2022/04/14 10:44:52;;;;;;;;;;;;;;;19.95;36.90;99436.59;8361023;28;20070;-75
2022/04/14 10:48:53;;;;;;;;;;;;;;;20.09;36.37;99442.34;8360955;28;20018;-75
2022/04/14 10:53:13;;;;;;;;;;;;;;;20.25;35.94;99429.28;8358530;28;19972;-74
2022/04/14 10:57:33;;;;;;;;;;;;;;;20.32;35.91;99434.94;8341499;28;20346;-74
2022/04/14 11:01:57;;;;;;;;;;;;;;;20.44;36.55;99432.03;8360144;28;19979;-75
2022/04/14 11:05:58;;;;;;;;;;;;;;;20.59;35.25;99428.34;8369629;28;20366;-75
2022/04/14 11:09:59;;;;;;;;;;;;;;;20.64;35.21;99436.28;8396180;28;19994;-75
2022/04/14 11:14:07;;;;;;;;;;;;;;;20.77;34.07;99433.34;8378567;28;20347;-75
2022/04/14 11:18:08;;;;;;;;;;;;;;;20.75;34.48;99430.16;8394789;28;19979;-75
2022/04/14 11:22:09;;;;;;;;;;;;;;;20.75;34.34;99432.91;8361816;28;20077;-74
2022/04/14 11:26:10;;;;;;;;;;;;;;;20.79;33.92;99431.81;8427597;28;19994;-75
2022/04/14 11:30:31;;;;;;;;;;;;;;;20.93;33.40;99431.25;8396559;28;19981;-75
2022/04/14 11:34:32;;;;;;;;;;;;;;;20.79;32.92;99417.28;8396397;28;20043;-76
2022/04/14 11:38:49;;;;;;;;;;;;;;;20.83;33.54;99420.91;8394105;28;20020;-72
2022/04/14 11:42:49;;;;;;;;;;;;;;;21.05;32.14;99425.53;8396217;28;20074;-72
2022/04/14 11:46:55;;;;;;;;;;;;;;;21.10;33.22;99419.69;8396040;28;20093;-72
2022/04/14 11:50:58;;;;;;;;;;;;;;;21.44;34.14;99418.63;8395814;28;19981;-72
2022/04/14 11:55:00;;;;;;;;;;;;;;;21.31;32.77;99403.53;8395933;28;19975;-72
2022/04/14 11:59:02;;;;;;;;;;;;;;;21.30;32.05;99407.47;8394943;28;19975;-72
2022/04/14 12:03:03;;;;;;;;;;;;;;;21.34;32.69;99402.03;8394659;28;19981;-73
2022/04/14 12:07:04;;;;;;;;;;;;;;;21.35;32.11;99409.91;8394691;28;19987;-72
2022/04/14 12:11:17;;;;;;;;;;;;;;;21.62;32.84;99396.09;8394977;28;19995;-72
2022/04/14 12:15:17;;;;;;;;;;;;;;;21.80;32.50;99402.56;8394631;28;20048;-72
2022/04/14 12:19:19;;;;;;;;;;;;;;;22.07;31.86;99395.81;8410517;28;20449;-72
2022/04/14 12:23:20;;;;;;;;;;;;;;;22.18;30.02;99385.69;8391076;28;20062;-72
2022/04/14 12:27:24;;;;;;;;;;;;;;;22.35;30.91;99391.75;8394091;28;19987;-72
2022/04/14 12:31:28;;;;;;;;;;;;;;;22.58;30.59;99386.81;8398029;28;19994;-75
2022/04/14 12:35:36;;;;;;;;;;;;;;;22.85;28.97;99396.47;8413010;28;19971;-75
2022/04/14 12:39:37;;;;;;;;;;;;;;;22.72;28.24;99392.47;8396940;28;19968;-75
2022/04/14 12:43:41;;;;;;;;;;;;;;;22.81;29.58;99381.91;8390652;28;20021;-74
2022/04/14 12:47:43;;;;;;;;;;;;;;;22.80;28.84;99377.56;8404977;28;19987;-74
2022/04/14 12:51:50;;;;;;;;;;;;;;;22.61;28.80;99369.53;8407336;28;20104;-74
2022/04/14 12:56:08;;;;;;;;;;;;;;;22.38;29.72;99368.97;8408623;28;19967;-74
2022/04/14 13:00:10;;;;;;;;;;;;;;;22.48;28.98;99360.00;8402921;28;20430;-75
2022/04/14 13:04:11;;;;;;;;;;;;;;;23.13;29.36;99358.09;8399122;28;19979;-74
2022/04/14 13:08:12;;;;;;;;;;;;;;;23.79;29.08;99350.47;8399172;28;20470;-73
2022/04/14 13:12:13;;;;;;;;;;;;;;;23.99;28.21;99359.19;8398970;28;19987;-73
2022/04/14 13:16:14;;;;;;;;;;;;;;;23.92;27.75;99343.41;8406771;28;20058;-73
2022/04/14 13:20:19;;;;;;;;;;;;;;;24.23;27.41;99347.38;8405312;28;19974;-75
2022/04/14 13:24:20;;;;;;;;;;;;;;;24.49;27.85;99343.44;8404092;28;19982;-73
2022/04/14 13:28:21;;;;;;;;;;;;;;;25.08;25.93;99338.22;8355122;28;19966;-74
2022/04/14 13:32:22;;;;;;;;;;;;;;;24.76;25.46;99336.28;8401102;28;20021;-73
2022/04/14 13:36:23;;;;;;;;;;;;;;;25.61;24.92;99343.53;8405902;28;19993;-73
2022/04/14 13:40:24;;;;;;;;;;;;;;;26.47;24.07;99337.00;8404008;28;20536;-73
2022/04/14 13:44:25;;;;;;;;;;;;;;;27.09;23.95;99338.75;8407165;28;19951;-73
2022/04/14 13:48:26;;;;;;;;;;;;;;;26.57;23.34;99340.06;8409316;28;20342;-73
2022/04/14 13:52:27;;;;;;;;;;;;;;;27.45;22.47;99349.41;8412759;28;19920;-72
2022/04/14 13:56:27;;;;;;;;;;;;;;;26.95;23.29;99338.94;8414219;28;19924;-73
2022/04/14 14:00:29;;;;;;;;;;;;;;;26.58;24.75;99341.66;8413579;28;19947;-73
2022/04/14 14:04:30;;;;;;;;;;;;;;;26.18;23.88;99341.16;8415112;28;19924;-74
2022/04/14 14:08:31;;;;;;;;;;;;;;;26.22;24.50;99336.44;8406227;28;20015;-74
2022/04/14 14:12:31;;;;;;;;;;;;;;;26.25;24.87;99335.63;8414860;28;19932;-73
2022/04/14 14:16:33;;;;;;;;;;;;;;;26.07;25.29;99330.19;8417174;28;19928;-73
2022/04/14 14:20:34;;;;;;;;;;;;;;;25.72;25.65;99335.16;8406545;28;19926;-74
2022/04/14 14:24:36;;;;;;;;;;;;;;;26.06;25.39;99333.38;8407643;28;19920;-74
2022/04/14 14:28:37;;;;;;;;;;;;;;;26.77;23.46;99343.84;8416760;28;19934;-77
2022/04/14 14:32:38;;;;;;;;;;;;;;;26.73;24.44;99337.53;8391820;28;19925;-71
2022/04/14 14:36:39;;;;;;;;;;;;;;;27.20;24.35;99339.41;8388390;28;19987;-71
2022/04/14 14:40:40;;;;;;;;;;;;;;;28.18;23.36;99329.38;8389345;28;20469;-72
2022/04/14 14:44:41;;;;;;;;;;;;;;;28.94;22.74;99332.00;8378897;28;19984;-71
2022/04/14 14:48:42;;;;;;;;;;;;;;;29.75;22.21;99329.53;8385480;28;19974;-72
2022/04/14 14:52:43;;;;;;;;;;;;;;;29.95;19.80;99325.91;8380002;28;20006;-73
2022/04/14 14:56:44;;;;;;;;;;;;;;;29.83;20.84;99318.19;8384669;28;19971;-73
2022/04/14 15:00:46;;;;;;;;;;;;;;;30.33;20.06;99318.59;8389429;28;20177;-73
2022/04/14 15:04:49;;;;;;;;;;;;;;;31.20;20.38;99319.47;8403947;28;19987;-73
2022/04/14 15:08:50;;;;;;;;;;;;;;;31.20;20.50;99313.88;8392978;28;19977;-76
2022/04/14 15:12:51;;;;;;;;;;;;;;;31.07;20.09;99315.88;8392074;28;19964;-73
2022/04/14 15:16:52;;;;;;;;;;;;;;;29.59;20.74;99326.69;8401703;28;20057;-73
2022/04/14 15:20:53;;;;;;;;;;;;;;;27.97;22.21;99330.47;8396567;28;19967;-73
2022/04/14 15:24:53;;;;;;;;;;;;;;;27.57;23.17;99335.00;8395995;28;19983;-73
2022/04/14 15:28:54;;;;;;;;;;;;;;;27.25;23.86;99330.63;8409987;28;20491;-73
2022/04/14 15:32:56;;;;;;;;;;;;;;;26.98;23.94;99331.75;8400847;28;20002;-73
2022/04/14 15:36:57;;;;;;;;;;;;;;;26.52;24.81;99337.75;8394965;28;19967;-73
2022/04/14 15:40:58;;;;;;;;;;;;;;;25.99;25.31;99334.19;8398169;28;20019;-73
2022/04/14 15:44:58;;;;;;;;;;;;;;;25.33;26.20;99347.19;8402420;28;19982;-73
2022/04/14 15:48:59;;;;;;;;;;;;;;;25.21;25.82;99350.41;8394550;28;19978;-73
2022/04/14 15:53:00;;;;;;;;;;;;;;;25.10;26.13;99344.13;8394966;28;19968;-73
2022/04/14 15:57:01;;;;;;;;;;;;;;;24.57;26.42;99350.53;8394544;28;20017;-73
2022/04/14 16:01:03;;;;;;;;;;;;;;;24.26;27.15;99351.34;8396995;28;20024;-73
2022/04/14 16:05:04;;;;;;;;;;;;;;;23.93;27.79;99361.53;8394431;28;20346;-73
2022/04/14 16:09:05;;;;;;;;;;;;;;;23.70;28.39;99352.81;8396661;28;20034;-73
2022/04/14 16:13:06;;;;;;;;;;;;;;;23.15;29.12;99361.25;8399752;28;19971;-73
2022/04/14 16:17:07;;;;;;;;;;;;;;;22.70;29.30;99350.72;8398636;28;20469;-74
2022/04/14 16:21:08;;;;;;;;;;;;;;;22.41;30.03;99359.97;8389609;28;19978;-73
2022/04/14 16:25:08;;;;;;;;;;;;;;;22.04;30.37;99351.78;8393080;28;20450;-73
2022/04/14 16:29:09;;;;;;;;;;;;;;;21.81;30.80;99365.66;8404152;28;20114;-73
2022/04/14 16:33:11;;;;;;;;;;;;;;;21.54;31.22;99361.44;8393448;28;19967;-74
2022/04/14 16:37:12;;;;;;;;;;;;;;;21.33;31.43;99362.75;8391156;28;19968;-74
2022/04/14 16:41:12;;;;;;;;;;;;;;;21.25;31.64;99358.38;8394224;28;20225;-74
2022/04/14 16:45:14;;;;;;;;;;;;;;;21.15;32.25;99361.75;8394761;28;20527;-75
2022/04/14 16:49:18;;;;;;;;;;;;;;;20.89;32.46;99357.06;8397830;28;20005;-74
2022/04/14 16:53:19;;;;;;;;;;;;;;;20.73;32.96;99372.13;8398030;28;20337;-73
2022/04/14 16:57:19;;;;;;;;;;;;;;;20.48;33.50;99372.53;8392892;28;19978;-73
2022/04/14 17:01:20;;;;;;;;;;;;;;;20.25;34.44;99368.97;8392405;28;19967;-73
2022/04/14 17:05:21;;;;;;;;;;;;;;;19.95;35.20;99376.28;8395649;28;19983;-73
2022/04/14 17:09:22;;;;;;;;;;;;;;;19.72;35.89;99368.03;8394435;28;20363;-73
2022/04/14 17:13:23;;;;;;;;;;;;;;;19.49;36.24;99376.19;8364234;28;19971;-73
2022/04/14 17:17:24;;;;;;;;;;;;;;;19.31;36.76;99369.53;8396006;28;20009;-75
2022/04/14 17:24:19;;;;;;;;;;;;;;;19.11;37.31;99376.16;8400549;28;19967;-75
2022/04/14 17:25:47;;;;;;;;;;;;;;;18.89;38.00;99381.16;8398815;28;20022;-75
2022/04/14 17:29:47;;;;;;;;;;;;;;;18.70;38.72;99372.91;8399879;28;20403;-77
2022/04/14 17:33:48;;;;;;;;;;;;;;;18.52;39.62;99377.13;8392030;28;20003;-76
2022/04/14 17:37:50;;;;;;;;;;;;;;;18.31;39.95;99393.03;8397734;28;19971;-75
2022/04/14 17:41:50;;;;;;;;;;;;;;;18.15;40.67;99396.53;8419989;28;20413;-75
2022/04/14 17:45:53;;;;;;;;;;;;;;;17.99;40.72;99403.94;8396340;28;20026;-74
2022/04/14 17:49:54;;;;;;;;;;;;;;;17.88;41.33;99413.78;8403878;28;20054;-75
2022/04/14 17:53:58;;;;;;;;;;;;;;;17.74;41.36;99418.88;8398395;28;19981;-75
2022/04/14 17:57:59;;;;;;;;;;;;;;;17.69;41.77;99416.38;8429695;28;20437;-75
2022/04/14 18:02:22;;;;;;;;;;;;;;;17.70;41.83;99435.16;8468483;27;19966;-75
2022/04/14 18:06:23;;;;;;;;;;;;;;;17.62;42.26;99443.50;8460727;28;19990;-75
2022/04/14 18:10:24;;;;;;;;;;;;;;;17.62;42.57;99455.22;8459470;27;19993;-76
2022/04/14 18:14:25;;;;;;;;;;;;;;;17.62;43.00;99451.69;8462384;27;19970;-76
2022/04/14 18:18:26;;;;;;;;;;;;;;;17.68;43.36;99458.50;8457705;28;19972;-76
2022/04/14 18:22:27;;;;;;;;;;;;;;;17.52;43.76;99476.72;8454400;28;19977;-75
2022/04/14 18:26:27;;;;;;;;;;;;;;;17.51;43.64;99469.66;8444052;28;19982;-76
2022/04/14 18:30:28;;;;;;;;;;;;;;;17.46;43.71;99478.88;8454242;28;20089;-76
2022/04/14 18:34:29;;;;;;;;;;;;;;;17.42;44.30;99486.19;8352684;28;20450;-76
2022/04/14 18:38:30;;;;;;;;;;;;;;;17.37;44.41;99480.97;8365967;28;20017;-76
2022/04/14 18:42:31;;;;;;;;;;;;;;;17.34;44.14;99480.88;8390057;28;19967;-75
2022/04/14 18:46:32;;;;;;;;;;;;;;;17.38;44.29;99481.75;8366734;28;19994;-75
2022/04/14 18:50:33;;;;;;;;;;;;;;;17.35;44.36;99482.44;8406102;28;19967;-75
2022/04/14 18:54:34;;;;;;;;;;;;;;;17.24;44.89;99488.38;8399597;28;20370;-75
2022/04/14 18:58:36;;;;;;;;;;;;;;;17.10;44.91;99490.66;8400259;28;20101;-75
2022/04/14 19:02:38;;;;;;;;;;;;;;;16.99;45.25;99492.25;8357460;28;19972;-76
2022/04/14 19:06:39;;;;;;;;;;;;;;;16.87;45.31;99494.97;8384274;28;19994;-76
2022/04/14 19:10:41;;;;;;;;;;;;;;;16.75;46.04;99481.34;8381091;28;20006;-76
2022/04/14 19:14:43;;;;;;;;;;;;;;;16.66;45.59;99494.28;8386167;28;19990;-76
2022/04/14 19:18:44;;;;;;;;;;;;;;;16.54;46.26;99496.97;8366065;28;20006;-75
2022/04/14 19:22:46;;;;;;;;;;;;;;;16.46;46.51;99496.72;8385363;28;19966;-76
2022/04/14 19:26:47;;;;;;;;;;;;;;;16.38;46.83;99505.81;8385934;28;19984;-76
2022/04/14 19:30:48;;;;;;;;;;;;;;;16.27;46.92;99510.09;8404545;28;19967;-76
2022/04/14 19:34:49;;;;;;;;;;;;;;;16.17;47.04;99510.53;8402875;28;19971;-76
2022/04/14 19:38:50;;;;;;;;;;;;;;;16.11;47.57;99522.75;8425637;28;20024;-75
2022/04/14 19:42:52;;;;;;;;;;;;;;;15.96;48.25;99532.34;8399899;28;19972;-76
2022/04/14 19:46:53;;;;;;;;;;;;;;;15.88;48.39;99529.69;8397045;28;19989;-76
2022/04/14 19:50:54;;;;;;;;;;;;;;;15.78;49.17;99524.63;8408883;28;20312;-76
2022/04/14 19:54:55;;;;;;;;;;;;;;;15.71;50.42;99524.38;8395085;28;19971;-75
2022/04/14 19:58:57;;;;;;;;;;;;;;;15.70;51.73;99530.97;8398343;28;19998;-75
2022/04/14 20:02:59;;;;;;;;;;;;;;;15.65;53.22;99533.88;8424279;28;20481;-76
2022/04/14 20:07:00;;;;;;;;;;;;;;;15.55;53.85;99538.56;8416984;28;20074;-75
2022/04/14 20:11:04;;;;;;;;;;;;;;;15.47;54.74;99542.13;8392756;28;19995;-75
2022/04/14 20:15:06;;;;;;;;;;;;;;;15.41;55.87;99548.88;8407471;28;19971;-75
2022/04/14 20:19:06;;;;;;;;;;;;;;;15.41;56.05;99554.34;8393893;28;20024;-76
2022/04/14 20:23:08;;;;;;;;;;;;;;;15.39;56.88;99551.13;8411763;28;19975;-75
2022/04/14 20:27:09;;;;;;;;;;;;;;;15.30;57.84;99553.13;8411033;28;20000;-75
2022/04/14 20:31:12;;;;;;;;;;;;;;;15.29;57.78;99554.25;8426519;28;20046;-76
2022/04/14 20:35:13;;;;;;;;;;;;;;;15.23;58.13;99552.81;8395845;28;19971;-75
2022/04/14 20:39:15;;;;;;;;;;;;;;;15.22;58.19;99562.13;8394115;28;19967;-75
2022/04/14 20:43:16;;;;;;;;;;;;;;;15.16;58.85;99558.81;8397564;28;20461;-75
2022/04/14 20:47:17;;;;;;;;;;;;;;;15.12;58.85;99562.50;8408199;28;20034;-76
2022/04/14 20:51:18;;;;;;;;;;;;;;;15.08;59.52;99556.91;8401796;28;19971;-75
2022/04/14 20:55:20;;;;;;;;;;;;;;;15.13;60.00;99569.53;8410369;28;20016;-75
2022/04/14 20:59:21;;;;;;;;;;;;;;;15.03;59.86;99559.00;8400540;28;19971;-76
2022/04/14 21:03:24;;;;;;;;;;;;;;;14.98;60.45;99567.34;8416156;28;20470;-75
2022/04/14 21:07:24;;;;;;;;;;;;;;;15.01;61.87;99574.88;8412408;28;19993;-76